sensor_id;sensor_type;location;lat;lon;timestamp;P1;durP1;ratioP1;P2;durP2;ratioP2
74483;SDS011;62942;52.462;10.846;2022-12-18T00:00:41;38;;;62;;
74483;SDS011;62942;52.462;10.846;2022-12-18T00:01:41;38.3;;;61.1;;
74483;SDS011;62942;52.462;10.846;2022-12-18T00:02:51;38.3;;;61.4;;
74483;SDS011;62942;52.462;10.846;2022-12-18T00:03:51;38.4;;;62.9;;
74483;SDS011;62942;52.462;10.846;2022-12-18T00:05:01;39;;;63.3;;
74483;SDS011;62942;52.462;10.846;2022-12-18T00:06:01;38.7;;;62.3;;
74483;SDS011;62942;52.462;10.846;2022-12-18T00:07:11;38.3;;;61.5;;
74483;SDS011;62942;52.462;10.846;2022-12-18T00:08:11;37.9;;;62.1;;
74483;SDS011;62942;52.462;10.846;2022-12-18T00:09:21;37.9;;;61.2;;
74483;SDS011;62942;52.462;10.846;2022-12-18T00:10:21;38.1;;;61.4;;
74483;SDS011;62942;52.462;10.846;2022-12-18T00:11:31;37.5;;;60.8;;
74483;SDS011;62942;52.462;10.846;2022-12-18T00:12:41;37.9;;;60.8;;
74483;SDS011;62942;52.462;10.846;2022-12-18T00:13:51;38.1;;;63.5;;
74483;SDS011;62942;52.462;10.846;2022-12-18T00:15:01;37.5;;;62.7;;
74483;SDS011;62942;52.462;10.846;2022-12-18T00:16:01;37.4;;;61.9;;
74483;SDS011;62942;52.462;10.846;2022-12-18T00:17:11;37;;;61.5;;
74483;SDS011;62942;52.462;10.846;2022-12-18T00:18:11;36.7;;;60.5;;
74483;SDS011;62942;52.462;10.846;2022-12-18T00:19:21;36.6;;;59.8;;
74483;SDS011;62942;52.462;10.846;2022-12-18T00:20:21;36.2;;;57.3;;
74483;SDS011;62942;52.462;10.846;2022-12-18T00:21:31;36.3;;;58.9;;
74483;SDS011;62942;52.462;10.846;2022-12-18T00:22:31;36.7;;;62.7;;
74483;SDS011;62942;52.462;10.846;2022-12-18T00:23:42;35.6;;;58.5;;
74483;SDS011;62942;52.462;10.846;2022-12-18T00:24:41;36.1;;;60.3;;
74483;SDS011;62942;52.462;10.846;2022-12-18T00:25:51;35.5;;;57;;
74483;SDS011;62942;52.462;10.846;2022-12-18T00:26:51;36.8;;;60.7;;
74483;SDS011;62942;52.462;10.846;2022-12-18T00:28:01;35.9;;;60.2;;
74483;SDS011;62942;52.462;10.846;2022-12-18T00:29:02;35.6;;;58.9;;
74483;SDS011;62942;52.462;10.846;2022-12-18T00:30:01;36;;;59.1;;
74483;SDS011;62942;52.462;10.846;2022-12-18T00:31:11;36.8;;;61.3;;
74483;SDS011;62942;52.462;10.846;2022-12-18T00:32:11;38;;;61.5;;
74483;SDS011;62942;52.462;10.846;2022-12-18T00:33:21;38.7;;;64;;
74483;SDS011;62942;52.462;10.846;2022-12-18T00:34:21;38.3;;;63.1;;
74483;SDS011;62942;52.462;10.846;2022-12-18T00:35:31;38.3;;;62.5;;
74483;SDS011;62942;52.462;10.846;2022-12-18T00:36:31;38.6;;;63.1;;
74483;SDS011;62942;52.462;10.846;2022-12-18T00:37:31;38.3;;;62.4;;
74483;SDS011;62942;52.462;10.846;2022-12-18T00:38:41;38.8;;;63.7;;
74483;SDS011;62942;52.462;10.846;2022-12-18T00:39:41;38.7;;;63.2;;
74483;SDS011;62942;52.462;10.846;2022-12-18T00:40:51;38.7;;;63.1;;
74483;SDS011;62942;52.462;10.846;2022-12-18T00:42:01;38.2;;;63.4;;
74483;SDS011;62942;52.462;10.846;2022-12-18T00:43:01;38.8;;;65.4;;
74483;SDS011;62942;52.462;10.846;2022-12-18T00:44:01;38.2;;;62.6;;
74483;SDS011;62942;52.462;10.846;2022-12-18T00:45:11;38.3;;;62.7;;
74483;SDS011;62942;52.462;10.846;2022-12-18T00:46:11;37.6;;;61.2;;
74483;SDS011;62942;52.462;10.846;2022-12-18T00:47:11;37.9;;;62.4;;
74483;SDS011;62942;52.462;10.846;2022-12-18T00:48:21;38;;;63;;
74483;SDS011;62942;52.462;10.846;2022-12-18T00:49:21;38.6;;;60.4;;
74483;SDS011;62942;52.462;10.846;2022-12-18T00:50:21;38.8;;;61.6;;
74483;SDS011;62942;52.462;10.846;2022-12-18T00:51:31;37.2;;;60.8;;
74483;SDS011;62942;52.462;10.846;2022-12-18T00:52:41;37.2;;;59.8;;
74483;SDS011;62942;52.462;10.846;2022-12-18T00:53:51;37;;;61.1;;
74483;SDS011;62942;52.462;10.846;2022-12-18T00:55:01;37.9;;;62.6;;
74483;SDS011;62942;52.462;10.846;2022-12-18T00:56:01;38.4;;;62.1;;
74483;SDS011;62942;52.462;10.846;2022-12-18T00:57:01;36.8;;;60;;
74483;SDS011;62942;52.462;10.846;2022-12-18T00:58:01;37.3;;;59.1;;
74483;SDS011;62942;52.462;10.846;2022-12-18T00:59:11;37.2;;;61.1;;
74483;SDS011;62942;52.462;10.846;2022-12-18T01:00:21;37.4;;;60.1;;
74483;SDS011;62942;52.462;10.846;2022-12-18T01:01:31;37.9;;;61.9;;
74483;SDS011;62942;52.462;10.846;2022-12-18T01:02:42;37.6;;;60.4;;
74483;SDS011;62942;52.462;10.846;2022-12-18T01:03:41;37.3;;;60.7;;
74483;SDS011;62942;52.462;10.846;2022-12-18T01:04:41;37.1;;;60.2;;
74483;SDS011;62942;52.462;10.846;2022-12-18T01:05:51;37.2;;;60.8;;
74483;SDS011;62942;52.462;10.846;2022-12-18T01:07:01;38.3;;;63.7;;
74483;SDS011;62942;52.462;10.846;2022-12-18T01:08:01;37.8;;;62.7;;
74483;SDS011;62942;52.462;10.846;2022-12-18T01:09:01;37.7;;;59.9;;
74483;SDS011;62942;52.462;10.846;2022-12-18T01:10:11;38.1;;;62.5;;
74483;SDS011;62942;52.462;10.846;2022-12-18T01:11:21;37.9;;;61.7;;
74483;SDS011;62942;52.462;10.846;2022-12-18T01:12:31;38;;;60.6;;
74483;SDS011;62942;52.462;10.846;2022-12-18T01:13:31;37.4;;;60.3;;
74483;SDS011;62942;52.462;10.846;2022-12-18T01:14:41;37.7;;;63.2;;
74483;SDS011;62942;52.462;10.846;2022-12-18T01:15:47;37.4;;;61.3;;
74483;SDS011;62942;52.462;10.846;2022-12-18T01:16:41;38.5;;;62.6;;
74483;SDS011;62942;52.462;10.846;2022-12-18T01:17:51;37.6;;;61.3;;
74483;SDS011;62942;52.462;10.846;2022-12-18T01:18:51;36.8;;;59;;
74483;SDS011;62942;52.462;10.846;2022-12-18T01:20:01;36.5;;;58.7;;
74483;SDS011;62942;52.462;10.846;2022-12-18T01:21:04;36.2;;;57.9;;
74483;SDS011;62942;52.462;10.846;2022-12-18T01:22:11;36.8;;;59.7;;
74483;SDS011;62942;52.462;10.846;2022-12-18T01:23:11;36.3;;;58.1;;
74483;SDS011;62942;52.462;10.846;2022-12-18T01:24:21;36.8;;;58.6;;
74483;SDS011;62942;52.462;10.846;2022-12-18T01:25:21;36.4;;;60.1;;
74483;SDS011;62942;52.462;10.846;2022-12-18T01:26:21;36.8;;;59.6;;
74483;SDS011;62942;52.462;10.846;2022-12-18T01:27:31;37.4;;;61.2;;
74483;SDS011;62942;52.462;10.846;2022-12-18T01:28:41;37.9;;;62;;
74483;SDS011;62942;52.462;10.846;2022-12-18T01:29:51;37.6;;;61.3;;
74483;SDS011;62942;52.462;10.846;2022-12-18T01:30:51;37.6;;;61.3;;
74483;SDS011;62942;52.462;10.846;2022-12-18T01:32:01;36.8;;;58;;
74483;SDS011;62942;52.462;10.846;2022-12-18T01:33:01;36.2;;;59.8;;
74483;SDS011;62942;52.462;10.846;2022-12-18T01:34:11;37.9;;;61.8;;
74483;SDS011;62942;52.462;10.846;2022-12-18T01:35:11;38.1;;;62.6;;
74483;SDS011;62942;52.462;10.846;2022-12-18T01:36:14;37.1;;;61;;
74483;SDS011;62942;52.462;10.846;2022-12-18T01:37:11;38;;;63.6;;
74483;SDS011;62942;52.462;10.846;2022-12-18T01:38:21;37.8;;;62;;
74483;SDS011;62942;52.462;10.846;2022-12-18T01:39:31;36.6;;;59.4;;
74483;SDS011;62942;52.462;10.846;2022-12-18T01:40:31;37.6;;;60.3;;
74483;SDS011;62942;52.462;10.846;2022-12-18T01:41:31;37.6;;;60.7;;
74483;SDS011;62942;52.462;10.846;2022-12-18T01:42:41;36.5;;;61.2;;
74483;SDS011;62942;52.462;10.846;2022-12-18T01:43:42;38.2;;;62.9;;
74483;SDS011;62942;52.462;10.846;2022-12-18T01:44:51;36.9;;;59.7;;
74483;SDS011;62942;52.462;10.846;2022-12-18T01:45:51;36.5;;;61;;
74483;SDS011;62942;52.462;10.846;2022-12-18T01:46:51;36.2;;;58.3;;
74483;SDS011;62942;52.462;10.846;2022-12-18T01:48:01;35.1;;;57.5;;
74483;SDS011;62942;52.462;10.846;2022-12-18T01:49:01;35.4;;;56.4;;
74483;SDS011;62942;52.462;10.846;2022-12-18T01:50:02;36;;;59.5;;
74483;SDS011;62942;52.462;10.846;2022-12-18T01:51:11;36.6;;;59.7;;
74483;SDS011;62942;52.462;10.846;2022-12-18T01:52:11;35.8;;;57.4;;
74483;SDS011;62942;52.462;10.846;2022-12-18T01:53:21;35.2;;;56.8;;
74483;SDS011;62942;52.462;10.846;2022-12-18T01:54:21;35.5;;;58.8;;
74483;SDS011;62942;52.462;10.846;2022-12-18T01:55:32;36.6;;;60.8;;
74483;SDS011;62942;52.462;10.846;2022-12-18T01:56:31;35.5;;;56.4;;
74483;SDS011;62942;52.462;10.846;2022-12-18T01:57:31;36.5;;;60.8;;
74483;SDS011;62942;52.462;10.846;2022-12-18T01:58:43;35.9;;;59.7;;
74483;SDS011;62942;52.462;10.846;2022-12-18T01:59:51;35.8;;;58.7;;
74483;SDS011;62942;52.462;10.846;2022-12-18T02:01:01;36.5;;;59.2;;
74483;SDS011;62942;52.462;10.846;2022-12-18T02:02:11;36.1;;;57.7;;
74483;SDS011;62942;52.462;10.846;2022-12-18T02:03:11;36.1;;;60.1;;
74483;SDS011;62942;52.462;10.846;2022-12-18T02:04:18;36.4;;;58.7;;
74483;SDS011;62942;52.462;10.846;2022-12-18T02:05:23;35.9;;;58;;
74483;SDS011;62942;52.462;10.846;2022-12-18T02:06:21;35.6;;;58;;
74483;SDS011;62942;52.462;10.846;2022-12-18T02:07:33;35.9;;;58.9;;
74483;SDS011;62942;52.462;10.846;2022-12-18T02:08:32;34.7;;;57.3;;
74483;SDS011;62942;52.462;10.846;2022-12-18T02:09:42;35.4;;;58.4;;
74483;SDS011;62942;52.462;10.846;2022-12-18T02:10:53;35.1;;;55.7;;
74483;SDS011;62942;52.462;10.846;2022-12-18T02:12:03;34.5;;;57.4;;
74483;SDS011;62942;52.462;10.846;2022-12-18T02:13:02;33.9;;;54.4;;
74483;SDS011;62942;52.462;10.846;2022-12-18T02:14:04;35;;;57.4;;
74483;SDS011;62942;52.462;10.846;2022-12-18T02:15:12;34.5;;;56;;
74483;SDS011;62942;52.462;10.846;2022-12-18T02:16:13;34.5;;;56.4;;
74483;SDS011;62942;52.462;10.846;2022-12-18T02:17:21;33.4;;;55.1;;
74483;SDS011;62942;52.462;10.846;2022-12-18T02:18:21;34.5;;;56.7;;
74483;SDS011;62942;52.462;10.846;2022-12-18T02:19:40;34;;;55.4;;
74483;SDS011;62942;52.462;10.846;2022-12-18T02:20:42;34.1;;;55.3;;
74483;SDS011;62942;52.462;10.846;2022-12-18T02:21:52;33.9;;;54.9;;
74483;SDS011;62942;52.462;10.846;2022-12-18T02:22:56;33.4;;;55.7;;
74483;SDS011;62942;52.462;10.846;2022-12-18T02:24:04;33.8;;;55.7;;
74483;SDS011;62942;52.462;10.846;2022-12-18T02:25:05;33.8;;;55.6;;
74483;SDS011;62942;52.462;10.846;2022-12-18T02:26:02;33;;;53.7;;
74483;SDS011;62942;52.462;10.846;2022-12-18T02:27:01;33.2;;;55;;
74483;SDS011;62942;52.462;10.846;2022-12-18T02:28:11;33;;;53.5;;
74483;SDS011;62942;52.462;10.846;2022-12-18T02:29:12;33;;;53.6;;
74483;SDS011;62942;52.462;10.846;2022-12-18T02:30:20;32.5;;;53.8;;
74483;SDS011;62942;52.462;10.846;2022-12-18T02:31:21;32.9;;;52.9;;
74483;SDS011;62942;52.462;10.846;2022-12-18T02:32:24;32.4;;;54.2;;
74483;SDS011;62942;52.462;10.846;2022-12-18T02:33:30;31.2;;;50.5;;
74483;SDS011;62942;52.462;10.846;2022-12-18T02:34:41;31.1;;;50.1;;
74483;SDS011;62942;52.462;10.846;2022-12-18T02:35:41;30.8;;;50.1;;
74483;SDS011;62942;52.462;10.846;2022-12-18T02:36:51;31.9;;;50.5;;
74483;SDS011;62942;52.462;10.846;2022-12-18T02:38:01;31.2;;;50.3;;
74483;SDS011;62942;52.462;10.846;2022-12-18T02:39:00;31.7;;;51;;
74483;SDS011;62942;52.462;10.846;2022-12-18T02:40:01;32.1;;;53.2;;
74483;SDS011;62942;52.462;10.846;2022-12-18T02:41:10;31.5;;;52.4;;
74483;SDS011;62942;52.462;10.846;2022-12-18T02:42:20;32;;;50.4;;
74483;SDS011;62942;52.462;10.846;2022-12-18T02:43:21;33.2;;;53.1;;
74483;SDS011;62942;52.462;10.846;2022-12-18T02:44:20;32.4;;;51.7;;
74483;SDS011;62942;52.462;10.846;2022-12-18T02:45:30;32.3;;;51.1;;
74483;SDS011;62942;52.462;10.846;2022-12-18T02:46:32;31.5;;;51.8;;
74483;SDS011;62942;52.462;10.846;2022-12-18T02:47:31;31.8;;;50.1;;
74483;SDS011;62942;52.462;10.846;2022-12-18T02:48:40;31;;;49.4;;
74483;SDS011;62942;52.462;10.846;2022-12-18T02:49:43;30.8;;;50.1;;
74483;SDS011;62942;52.462;10.846;2022-12-18T02:50:42;31.1;;;49.5;;
74483;SDS011;62942;52.462;10.846;2022-12-18T02:51:52;31.3;;;50.6;;
74483;SDS011;62942;52.462;10.846;2022-12-18T02:53:03;31.5;;;50.9;;
74483;SDS011;62942;52.462;10.846;2022-12-18T02:54:02;29.2;;;47.1;;
74483;SDS011;62942;52.462;10.846;2022-12-18T02:55:13;30;;;47.3;;
74483;SDS011;62942;52.462;10.846;2022-12-18T02:56:21;29.7;;;48.3;;
74483;SDS011;62942;52.462;10.846;2022-12-18T02:57:33;30.6;;;48.6;;
74483;SDS011;62942;52.462;10.846;2022-12-18T02:58:32;29.9;;;47.7;;
74483;SDS011;62942;52.462;10.846;2022-12-18T02:59:32;30.7;;;49.4;;
74483;SDS011;62942;52.462;10.846;2022-12-18T03:00:31;30.4;;;48.3;;
74483;SDS011;62942;52.462;10.846;2022-12-18T03:01:32;30.1;;;47.5;;
74483;SDS011;62942;52.462;10.846;2022-12-18T03:02:41;30.7;;;49.4;;
74483;SDS011;62942;52.462;10.846;2022-12-18T03:03:41;30.1;;;49.8;;
74483;SDS011;62942;52.462;10.846;2022-12-18T03:04:52;29.1;;;46.2;;
74483;SDS011;62942;52.462;10.846;2022-12-18T03:05:51;29.9;;;47.9;;
74483;SDS011;62942;52.462;10.846;2022-12-18T03:06:51;29.8;;;47.1;;
74483;SDS011;62942;52.462;10.846;2022-12-18T03:08:01;29.8;;;47.7;;
74483;SDS011;62942;52.462;10.846;2022-12-18T03:09:02;29.7;;;47.9;;
74483;SDS011;62942;52.462;10.846;2022-12-18T03:10:00;30.3;;;49.5;;
74483;SDS011;62942;52.462;10.846;2022-12-18T03:11:11;29.7;;;47.5;;
74483;SDS011;62942;52.462;10.846;2022-12-18T03:12:18;30.1;;;47.4;;
74483;SDS011;62942;52.462;10.846;2022-12-18T03:13:22;30.3;;;48.7;;
74483;SDS011;62942;52.462;10.846;2022-12-18T03:14:20;30.4;;;48.8;;
74483;SDS011;62942;52.462;10.846;2022-12-18T03:15:31;29.8;;;47.1;;
74483;SDS011;62942;52.462;10.846;2022-12-18T03:16:40;30.1;;;48.9;;
74483;SDS011;62942;52.462;10.846;2022-12-18T03:17:41;30.1;;;48.4;;
74483;SDS011;62942;52.462;10.846;2022-12-18T03:18:51;29.9;;;47.7;;
74483;SDS011;62942;52.462;10.846;2022-12-18T03:19:51;29.1;;;46.1;;
74483;SDS011;62942;52.462;10.846;2022-12-18T03:21:02;29.9;;;48.3;;
74483;SDS011;62942;52.462;10.846;2022-12-18T03:22:01;29.7;;;47;;
74483;SDS011;62942;52.462;10.846;2022-12-18T03:23:11;29.9;;;49.1;;
74483;SDS011;62942;52.462;10.846;2022-12-18T03:24:11;29.9;;;47.9;;
74483;SDS011;62942;52.462;10.846;2022-12-18T03:25:11;29.3;;;45.9;;
74483;SDS011;62942;52.462;10.846;2022-12-18T03:26:22;29.6;;;46.8;;
74483;SDS011;62942;52.462;10.846;2022-12-18T03:27:20;29.2;;;46.2;;
74483;SDS011;62942;52.462;10.846;2022-12-18T03:28:21;29.1;;;47.1;;
74483;SDS011;62942;52.462;10.846;2022-12-18T03:29:31;29.3;;;47.1;;
74483;SDS011;62942;52.462;10.846;2022-12-18T03:30:41;29.1;;;46;;
74483;SDS011;62942;52.462;10.846;2022-12-18T03:31:40;29;;;45.3;;
74483;SDS011;62942;52.462;10.846;2022-12-18T03:32:51;28.2;;;44.6;;
74483;SDS011;62942;52.462;10.846;2022-12-18T03:33:51;28.6;;;45.5;;
74483;SDS011;62942;52.462;10.846;2022-12-18T03:34:51;28.4;;;45.6;;
74483;SDS011;62942;52.462;10.846;2022-12-18T03:36:00;28.7;;;44.8;;
74483;SDS011;62942;52.462;10.846;2022-12-18T03:37:00;29.4;;;47.2;;
74483;SDS011;62942;52.462;10.846;2022-12-18T03:38:11;28.2;;;44.2;;
74483;SDS011;62942;52.462;10.846;2022-12-18T03:39:10;28;;;44;;
74483;SDS011;62942;52.462;10.846;2022-12-18T03:40:20;27.6;;;43.3;;
74483;SDS011;62942;52.462;10.846;2022-12-18T03:41:23;29.3;;;45.8;;
74483;SDS011;62942;52.462;10.846;2022-12-18T03:42:32;28.8;;;44.8;;
74483;SDS011;62942;52.462;10.846;2022-12-18T03:43:34;29.7;;;46.2;;
74483;SDS011;62942;52.462;10.846;2022-12-18T03:44:42;29.3;;;46.8;;
74483;SDS011;62942;52.462;10.846;2022-12-18T03:45:41;29.3;;;46.4;;
74483;SDS011;62942;52.462;10.846;2022-12-18T03:46:41;29.9;;;48.1;;
74483;SDS011;62942;52.462;10.846;2022-12-18T03:47:53;29.9;;;48.6;;
74483;SDS011;62942;52.462;10.846;2022-12-18T03:48:51;30.5;;;48.2;;
74483;SDS011;62942;52.462;10.846;2022-12-18T03:49:53;29.9;;;47.9;;
74483;SDS011;62942;52.462;10.846;2022-12-18T03:51:01;29.4;;;46.5;;
74483;SDS011;62942;52.462;10.846;2022-12-18T03:52:01;30.6;;;49.3;;
74483;SDS011;62942;52.462;10.846;2022-12-18T03:53:14;30.1;;;47.2;;
74483;SDS011;62942;52.462;10.846;2022-12-18T03:54:10;29.7;;;46.9;;
74483;SDS011;62942;52.462;10.846;2022-12-18T03:55:20;29.2;;;45.9;;
74483;SDS011;62942;52.462;10.846;2022-12-18T03:56:21;29.6;;;47.2;;
74483;SDS011;62942;52.462;10.846;2022-12-18T03:57:21;29.4;;;47.1;;
74483;SDS011;62942;52.462;10.846;2022-12-18T03:58:31;29.5;;;47.2;;
74483;SDS011;62942;52.462;10.846;2022-12-18T03:59:30;30.2;;;48.4;;
74483;SDS011;62942;52.462;10.846;2022-12-18T04:00:40;29;;;44.3;;
74483;SDS011;62942;52.462;10.846;2022-12-18T04:01:50;30.1;;;48;;
74483;SDS011;62942;52.462;10.846;2022-12-18T04:03:00;29.7;;;47;;
74483;SDS011;62942;52.462;10.846;2022-12-18T04:04:10;30.3;;;48.1;;
74483;SDS011;62942;52.462;10.846;2022-12-18T04:05:21;30.4;;;48.6;;
74483;SDS011;62942;52.462;10.846;2022-12-18T04:06:23;29.4;;;46.3;;
74483;SDS011;62942;52.462;10.846;2022-12-18T04:07:30;29.5;;;48.1;;
74483;SDS011;62942;52.462;10.846;2022-12-18T04:08:40;29.6;;;46.1;;
74483;SDS011;62942;52.462;10.846;2022-12-18T04:09:50;29.5;;;47.1;;
74483;SDS011;62942;52.462;10.846;2022-12-18T04:10:50;29.5;;;47;;
74483;SDS011;62942;52.462;10.846;2022-12-18T04:11:51;29.2;;;46.4;;
74483;SDS011;62942;52.462;10.846;2022-12-18T04:12:50;28.8;;;44.6;;
74483;SDS011;62942;52.462;10.846;2022-12-18T04:14:00;28.5;;;45.3;;
74483;SDS011;62942;52.462;10.846;2022-12-18T04:15:00;28.9;;;46.1;;
74483;SDS011;62942;52.462;10.846;2022-12-18T04:16:00;29.5;;;46.9;;
74483;SDS011;62942;52.462;10.846;2022-12-18T04:17:10;30;;;48.4;;
74483;SDS011;62942;52.462;10.846;2022-12-18T04:18:10;29.2;;;46.9;;
74483;SDS011;62942;52.462;10.846;2022-12-18T04:19:20;29.5;;;48.2;;
74483;SDS011;62942;52.462;10.846;2022-12-18T04:20:20;28.8;;;46;;
74483;SDS011;62942;52.462;10.846;2022-12-18T04:21:30;29.5;;;48.1;;
74483;SDS011;62942;52.462;10.846;2022-12-18T04:22:40;28;;;44.3;;
74483;SDS011;62942;52.462;10.846;2022-12-18T04:23:50;28.1;;;45.8;;
74483;SDS011;62942;52.462;10.846;2022-12-18T04:25:00;27.1;;;43;;
74483;SDS011;62942;52.462;10.846;2022-12-18T04:26:00;28.1;;;45.8;;
74483;SDS011;62942;52.462;10.846;2022-12-18T04:27:10;28.2;;;45.2;;
74483;SDS011;62942;52.462;10.846;2022-12-18T04:28:20;28.2;;;45.9;;
74483;SDS011;62942;52.462;10.846;2022-12-18T04:29:30;28.7;;;46.3;;
74483;SDS011;62942;52.462;10.846;2022-12-18T04:30:30;29.5;;;47.4;;
74483;SDS011;62942;52.462;10.846;2022-12-18T04:31:40;28.9;;;46.1;;
74483;SDS011;62942;52.462;10.846;2022-12-18T04:32:40;29.1;;;47.6;;
74483;SDS011;62942;52.462;10.846;2022-12-18T04:33:50;29.3;;;47.1;;
74483;SDS011;62942;52.462;10.846;2022-12-18T04:35:00;29.3;;;46.9;;
74483;SDS011;62942;52.462;10.846;2022-12-18T04:36:00;29;;;47.3;;
74483;SDS011;62942;52.462;10.846;2022-12-18T04:37:10;29;;;46.1;;
74483;SDS011;62942;52.462;10.846;2022-12-18T04:38:20;29.5;;;47.7;;
74483;SDS011;62942;52.462;10.846;2022-12-18T04:39:30;29.8;;;48.5;;
74483;SDS011;62942;52.462;10.846;2022-12-18T04:40:30;29.6;;;48;;
74483;SDS011;62942;52.462;10.846;2022-12-18T04:41:30;28.5;;;45.1;;
74483;SDS011;62942;52.462;10.846;2022-12-18T04:42:40;28.7;;;45.3;;
74483;SDS011;62942;52.462;10.846;2022-12-18T04:43:40;28.5;;;45.7;;
74483;SDS011;62942;52.462;10.846;2022-12-18T04:44:40;29.2;;;46.6;;
74483;SDS011;62942;52.462;10.846;2022-12-18T04:45:40;28.3;;;46.3;;
74483;SDS011;62942;52.462;10.846;2022-12-18T04:46:50;28.5;;;44.4;;
74483;SDS011;62942;52.462;10.846;2022-12-18T04:47:50;28.3;;;45.2;;
74483;SDS011;62942;52.462;10.846;2022-12-18T04:49:00;29.6;;;48.4;;
74483;SDS011;62942;52.462;10.846;2022-12-18T04:50:00;27.8;;;45.3;;
74483;SDS011;62942;52.462;10.846;2022-12-18T04:51:10;28.1;;;47.1;;
74483;SDS011;62942;52.462;10.846;2022-12-18T04:52:20;28.3;;;45.5;;
74483;SDS011;62942;52.462;10.846;2022-12-18T04:53:30;28.8;;;46.3;;
74483;SDS011;62942;52.462;10.846;2022-12-18T04:54:40;28;;;45.3;;
74483;SDS011;62942;52.462;10.846;2022-12-18T04:55:40;28.2;;;46.7;;
74483;SDS011;62942;52.462;10.846;2022-12-18T04:56:40;27.7;;;44.6;;
74483;SDS011;62942;52.462;10.846;2022-12-18T04:57:50;28.1;;;46.1;;
74483;SDS011;62942;52.462;10.846;2022-12-18T04:59:00;28.3;;;47.2;;
74483;SDS011;62942;52.462;10.846;2022-12-18T05:00:00;28.5;;;46.5;;
74483;SDS011;62942;52.462;10.846;2022-12-18T05:01:11;29;;;47.1;;
74483;SDS011;62942;52.462;10.846;2022-12-18T05:02:10;28.9;;;47.5;;
74483;SDS011;62942;52.462;10.846;2022-12-18T05:03:10;28.7;;;47.5;;
74483;SDS011;62942;52.462;10.846;2022-12-18T05:04:20;28.5;;;46;;
74483;SDS011;62942;52.462;10.846;2022-12-18T05:05:20;28.3;;;43.8;;
74483;SDS011;62942;52.462;10.846;2022-12-18T05:06:30;28.8;;;46.6;;
74483;SDS011;62942;52.462;10.846;2022-12-18T05:07:40;28.7;;;47.2;;
74483;SDS011;62942;52.462;10.846;2022-12-18T05:08:50;29.4;;;47.3;;
74483;SDS011;62942;52.462;10.846;2022-12-18T05:09:50;29;;;45.2;;
74483;SDS011;62942;52.462;10.846;2022-12-18T05:10:57;29.1;;;48.7;;
74483;SDS011;62942;52.462;10.846;2022-12-18T05:12:00;29.5;;;48.8;;
74483;SDS011;62942;52.462;10.846;2022-12-18T05:13:00;29.5;;;49.3;;
74483;SDS011;62942;52.462;10.846;2022-12-18T05:14:00;30.2;;;50.8;;
74483;SDS011;62942;52.462;10.846;2022-12-18T05:15:10;29.3;;;48.2;;
74483;SDS011;62942;52.462;10.846;2022-12-18T05:16:10;28.9;;;48.3;;
74483;SDS011;62942;52.462;10.846;2022-12-18T05:17:20;28.2;;;46.2;;
74483;SDS011;62942;52.462;10.846;2022-12-18T05:18:30;28.2;;;46.9;;
74483;SDS011;62942;52.462;10.846;2022-12-18T05:19:40;28.2;;;45.9;;
74483;SDS011;62942;52.462;10.846;2022-12-18T05:20:51;28.3;;;46.3;;
74483;SDS011;62942;52.462;10.846;2022-12-18T05:22:00;28.7;;;46.6;;
74483;SDS011;62942;52.462;10.846;2022-12-18T05:23:10;28.7;;;46.8;;
74483;SDS011;62942;52.462;10.846;2022-12-18T05:24:20;29.4;;;47.3;;
74483;SDS011;62942;52.462;10.846;2022-12-18T05:25:20;29.8;;;50.5;;
74483;SDS011;62942;52.462;10.846;2022-12-18T05:26:20;29.5;;;48.2;;
74483;SDS011;62942;52.462;10.846;2022-12-18T05:27:30;29.8;;;47.6;;
74483;SDS011;62942;52.462;10.846;2022-12-18T05:28:40;29.7;;;48.9;;
74483;SDS011;62942;52.462;10.846;2022-12-18T05:29:50;29.6;;;46.5;;
74483;SDS011;62942;52.462;10.846;2022-12-18T05:30:51;30;;;49.3;;
74483;SDS011;62942;52.462;10.846;2022-12-18T05:31:50;29.2;;;47;;
74483;SDS011;62942;52.462;10.846;2022-12-18T05:33:00;30;;;49.2;;
74483;SDS011;62942;52.462;10.846;2022-12-18T05:34:00;29.7;;;49.5;;
74483;SDS011;62942;52.462;10.846;2022-12-18T05:35:11;29.4;;;48;;
74483;SDS011;62942;52.462;10.846;2022-12-18T05:36:10;29.3;;;48.6;;
74483;SDS011;62942;52.462;10.846;2022-12-18T05:37:10;29;;;47.1;;
74483;SDS011;62942;52.462;10.846;2022-12-18T05:38:21;29.5;;;47.2;;
74483;SDS011;62942;52.462;10.846;2022-12-18T05:39:20;29.8;;;47.9;;
74483;SDS011;62942;52.462;10.846;2022-12-18T05:40:20;29.2;;;47.7;;
74483;SDS011;62942;52.462;10.846;2022-12-18T05:41:30;29;;;48.6;;
74483;SDS011;62942;52.462;10.846;2022-12-18T05:42:30;29.4;;;48.6;;
74483;SDS011;62942;52.462;10.846;2022-12-18T05:43:40;28.7;;;47.8;;
74483;SDS011;62942;52.462;10.846;2022-12-18T05:44:40;28.9;;;48.4;;
74483;SDS011;62942;52.462;10.846;2022-12-18T05:45:41;28.4;;;47.6;;
74483;SDS011;62942;52.462;10.846;2022-12-18T05:46:50;28.7;;;47;;
74483;SDS011;62942;52.462;10.846;2022-12-18T05:47:50;28.5;;;46.5;;
74483;SDS011;62942;52.462;10.846;2022-12-18T05:48:50;28.7;;;46.8;;
74483;SDS011;62942;52.462;10.846;2022-12-18T05:50:00;28.4;;;47.1;;
74483;SDS011;62942;52.462;10.846;2022-12-18T05:51:04;29.9;;;50.5;;
74483;SDS011;62942;52.462;10.846;2022-12-18T05:52:10;29.2;;;47.8;;
74483;SDS011;62942;52.462;10.846;2022-12-18T05:53:10;30.1;;;50.5;;
74483;SDS011;62942;52.462;10.846;2022-12-18T05:54:20;29.6;;;48.9;;
74483;SDS011;62942;52.462;10.846;2022-12-18T05:55:20;30.1;;;49.6;;
74483;SDS011;62942;52.462;10.846;2022-12-18T05:56:21;28.7;;;46.4;;
74483;SDS011;62942;52.462;10.846;2022-12-18T05:57:30;28.3;;;45.5;;
74483;SDS011;62942;52.462;10.846;2022-12-18T05:58:30;28;;;45.2;;
74483;SDS011;62942;52.462;10.846;2022-12-18T05:59:30;28.2;;;47.2;;
74483;SDS011;62942;52.462;10.846;2022-12-18T06:00:30;27.7;;;45.8;;
74483;SDS011;62942;52.462;10.846;2022-12-18T06:01:40;29.2;;;48.2;;
74483;SDS011;62942;52.462;10.846;2022-12-18T06:02:50;27.8;;;45.9;;
74483;SDS011;62942;52.462;10.846;2022-12-18T06:04:00;27.9;;;45.6;;
74483;SDS011;62942;52.462;10.846;2022-12-18T06:05:00;28.3;;;47.6;;
74483;SDS011;62942;52.462;10.846;2022-12-18T06:06:14;27.6;;;46;;
74483;SDS011;62942;52.462;10.846;2022-12-18T06:07:20;28.1;;;47.6;;
74483;SDS011;62942;52.462;10.846;2022-12-18T06:08:30;27.7;;;45.9;;
74483;SDS011;62942;52.462;10.846;2022-12-18T06:09:40;27.4;;;46;;
74483;SDS011;62942;52.462;10.846;2022-12-18T06:10:40;27.6;;;45.6;;
74483;SDS011;62942;52.462;10.846;2022-12-18T06:11:40;27.9;;;47.1;;
74483;SDS011;62942;52.462;10.846;2022-12-18T06:12:40;27.7;;;45.3;;
74483;SDS011;62942;52.462;10.846;2022-12-18T06:13:50;27.4;;;46.2;;
74483;SDS011;62942;52.462;10.846;2022-12-18T06:14:50;27.8;;;46.3;;
74483;SDS011;62942;52.462;10.846;2022-12-18T06:15:50;28;;;47.7;;
74483;SDS011;62942;52.462;10.846;2022-12-18T06:17:00;28.2;;;46.3;;
74483;SDS011;62942;52.462;10.846;2022-12-18T06:18:10;27.4;;;46.5;;
74483;SDS011;62942;52.462;10.846;2022-12-18T06:19:13;27.9;;;47.4;;
74483;SDS011;62942;52.462;10.846;2022-12-18T06:20:20;27.6;;;45.8;;
74483;SDS011;62942;52.462;10.846;2022-12-18T06:21:20;28.2;;;47.4;;
74483;SDS011;62942;52.462;10.846;2022-12-18T06:22:30;27.3;;;46;;
74483;SDS011;62942;52.462;10.846;2022-12-18T06:23:30;27.9;;;46.3;;
74483;SDS011;62942;52.462;10.846;2022-12-18T06:24:40;28;;;47.3;;
74483;SDS011;62942;52.462;10.846;2022-12-18T06:25:40;28;;;46.7;;
74483;SDS011;62942;52.462;10.846;2022-12-18T06:26:50;26.9;;;45.2;;
74483;SDS011;62942;52.462;10.846;2022-12-18T06:28:00;28.3;;;47.7;;
74483;SDS011;62942;52.462;10.846;2022-12-18T06:29:00;27.3;;;45.5;;